Time,TemperatureF,DewpointF,PressureIn,WindDirection,WindDirectionDegrees,WindSpeedMPH,WindSpeedGustMPH,Humidity,HourlyPrecipIn,Conditions,Clouds,dailyrainin,SolarRadiationWatts/m^2,SoftwareType,DateUTC
2013-09-13 00:08:00,72.4,46.0,30.07,SSW,205,0.0,5.0,39,0.00,,,0.00,0,weatherlink.com 1.10,2013-09-13 06:08:00,
2013-09-13 00:23:00,70.9,46.0,30.07,South,171,0.0,3.0,41,0.00,,,0.00,0,weatherlink.com 1.10,2013-09-13 06:23:00,
2013-09-13 00:38:00,70.9,46.0,30.07,South,177,1.0,7.0,41,0.00,,,0.00,0,weatherlink.com 1.10,2013-09-13 06:38:00,
2013-09-13 00:53:00,73.6,47.0,30.07,SSW,210,4.0,12.0,39,0.00,,,0.00,0,weatherlink.com 1.10,2013-09-13 06:53:00,
2013-09-13 01:08:00,72.4,47.0,30.06,SE,126,7.0,14.0,41,0.00,,,0.00,0,weatherlink.com 1.10,2013-09-13 07:08:00,
2013-09-13 01:24:00,70.1,48.0,30.07,South,191,0.0,3.0,45,0.00,,,0.00,0,weatherlink.com 1.10,2013-09-13 07:24:00,
2013-09-13 01:39:00,66.8,48.0,30.06,SW,232,3.0,5.0,52,0.00,,,0.00,0,weatherlink.com 1.10,2013-09-13 07:39:00,
2013-09-13 01:54:00,66.2,48.0,30.06,SW,226,0.0,4.0,52,0.00,,,0.00,0,weatherlink.com 1.10,2013-09-13 07:54:00,
2013-09-13 02:09:00,66.3,47.0,30.07,SW,227,0.0,0.0,51,0.00,,,0.00,0,weatherlink.com 1.10,2013-09-13 08:09:00,
2013-09-13 02:24:00,66.2,47.0,30.07,NNE,32,2.0,3.0,51,0.00,,,0.00,0,weatherlink.com 1.10,2013-09-13 08:24:00,
2013-09-13 02:39:00,66.9,47.0,30.06,NE,34,3.0,4.0,49,0.00,,,0.00,0,weatherlink.com 1.10,2013-09-13 08:39:00,
2013-09-13 02:54:00,65.9,46.0,30.06,NNE,16,3.0,4.0,49,0.00,,,0.00,0,weatherlink.com 1.10,2013-09-13 08:54:00,
2013-09-13 03:09:00,65.5,46.0,30.06,North,11,8.0,9.0,50,0.00,,,0.00,0,weatherlink.com 1.10,2013-09-13 09:09:00,
2013-09-13 03:24:00,64.7,45.0,30.06,NNE,21,7.0,9.0,50,0.00,,,0.00,0,weatherlink.com 1.10,2013-09-13 09:24:00,
2013-09-13 03:39:00,65.0,46.0,30.06,NE,35,6.0,9.0,50,0.00,,,0.00,0,weatherlink.com 1.10,2013-09-13 09:39:00,
2013-09-13 03:54:00,65.4,46.0,30.05,North,9,9.0,9.0,50,0.00,,,0.00,0,weatherlink.com 1.10,2013-09-13 09:54:00,
2013-09-13 04:09:00,64.2,46.0,30.06,NNE,14,9.0,11.0,52,0.00,,,0.00,0,weatherlink.com 1.10,2013-09-13 10:09:00,
2013-09-13 04:24:00,63.5,46.0,30.06,North,5,8.0,10.0,53,0.00,,,0.00,0,weatherlink.com 1.10,2013-09-13 10:24:00,
2013-09-13 04:39:00,62.6,46.0,30.07,North,11,9.0,9.0,54,0.00,,,0.00,0,weatherlink.com 1.10,2013-09-13 10:39:00,
2013-09-13 04:54:00,61.7,46.0,30.07,NNE,23,6.0,9.0,56,0.00,,,0.00,0,weatherlink.com 1.10,2013-09-13 10:54:00,
2013-09-13 05:09:00,60.9,46.0,30.07,North,5,8.0,9.0,58,0.00,,,0.00,0,weatherlink.com 1.10,2013-09-13 11:09:00,
2013-09-13 05:24:00,60.2,46.0,30.07,North,11,7.0,8.0,59,0.00,,,0.00,0,weatherlink.com 1.10,2013-09-13 11:24:00,
2013-09-13 05:39:00,60.3,46.0,30.07,North,360,6.0,7.0,59,0.00,,,0.00,0,weatherlink.com 1.10,2013-09-13 11:39:00,
2013-09-13 05:54:00,60.4,46.0,30.06,NNE,18,7.0,9.0,59,0.00,,,0.00,0,weatherlink.com 1.10,2013-09-13 11:54:00,
2013-09-13 06:09:00,60.0,46.0,30.06,NNE,27,7.0,8.0,60,0.00,,,0.00,0,weatherlink.com 1.10,2013-09-13 12:09:00,
2013-09-13 06:24:00,60.8,46.0,30.06,NNE,22,5.0,8.0,59,0.00,,,0.00,0,weatherlink.com 1.10,2013-09-13 12:24:00,
2013-09-13 06:39:00,61.1,46.0,30.06,NNE,21,5.0,7.0,58,0.00,,,0.00,0,weatherlink.com 1.10,2013-09-13 12:39:00,
2013-09-13 06:54:00,60.2,46.0,30.07,North,10,7.0,7.0,59,0.00,,,0.00,0,weatherlink.com 1.10,2013-09-13 12:54:00,
2013-09-13 07:09:00,59.8,46.0,30.07,NNE,28,7.0,10.0,60,0.00,,,0.00,0,weatherlink.com 1.10,2013-09-13 13:09:00,
2013-09-13 07:24:00,59.8,46.0,30.07,NNE,22,9.0,11.0,60,0.00,,,0.00,11,weatherlink.com 1.10,2013-09-13 13:24:00,
2013-09-13 07:39:00,59.4,46.0,30.07,North,5,8.0,10.0,61,0.00,,,0.00,23,weatherlink.com 1.10,2013-09-13 13:39:00,
2013-09-13 07:54:00,58.1,45.0,30.07,NNE,17,6.0,8.0,63,0.00,,,0.00,28,weatherlink.com 1.10,2013-09-13 13:54:00,
2013-09-13 08:09:00,57.8,46.0,30.08,NNE,14,5.0,8.0,64,0.00,,,0.00,104,weatherlink.com 1.10,2013-09-13 14:09:00,
2013-09-13 08:25:00,58.8,46.0,30.08,North,5,0.0,2.0,63,0.00,,,0.00,144,weatherlink.com 1.10,2013-09-13 14:25:00,
2013-09-13 08:40:00,59.2,46.0,30.08,North,355,4.0,4.0,62,0.00,,,0.00,197,weatherlink.com 1.10,2013-09-13 14:40:00,
2013-09-13 08:55:00,59.3,46.0,30.07,North,5,0.0,4.0,62,0.00,,,0.00,239,weatherlink.com 1.10,2013-09-13 14:55:00,
2013-09-13 09:10:00,60.7,47.0,30.07,North,5,0.0,0.0,60,0.00,,,0.00,283,weatherlink.com 1.10,2013-09-13 15:10:00,
2013-09-13 09:25:00,61.2,47.0,30.07,North,351,4.0,4.0,60,0.00,,,0.00,323,weatherlink.com 1.10,2013-09-13 15:25:00,
2013-09-13 09:40:00,61.7,47.0,30.07,NNE,30,1.0,3.0,58,0.00,,,0.00,359,weatherlink.com 1.10,2013-09-13 15:40:00,
2013-09-13 09:55:00,64.0,47.0,30.07,North,5,2.0,3.0,55,0.00,,,0.00,401,weatherlink.com 1.10,2013-09-13 15:55:00,
2013-09-13 10:10:00,65.4,47.0,30.06,North,9,2.0,2.0,52,0.00,,,0.00,448,weatherlink.com 1.10,2013-09-13 16:10:00,
2013-09-13 10:25:00,66.9,48.0,30.06,NNW,348,0.0,3.0,50,0.00,,,0.00,526,weatherlink.com 1.10,2013-09-13 16:25:00,
2013-09-13 10:40:00,68.3,48.0,30.05,North,350,0.0,3.0,48,0.00,,,0.00,262,weatherlink.com 1.10,2013-09-13 16:40:00,
2013-09-13 10:55:00,69.9,49.0,30.05,SW,236,1.0,5.0,47,0.00,,,0.00,376,weatherlink.com 1.10,2013-09-13 16:55:00,
2013-09-13 11:10:00,70.5,49.0,30.04,WSW,248,0.0,2.0,47,0.00,,,0.00,536,weatherlink.com 1.10,2013-09-13 17:10:00,
2013-09-13 11:25:00,72.0,49.0,30.03,SW,218,2.0,5.0,45,0.00,,,0.00,594,weatherlink.com 1.10,2013-09-13 17:25:00,
2013-09-13 11:40:00,72.5,50.0,30.03,SW,215,2.0,7.0,45,0.00,,,0.00,615,weatherlink.com 1.10,2013-09-13 17:40:00,
2013-09-13 11:55:00,72.4,50.0,30.02,SSW,202,1.0,6.0,45,0.00,,,0.00,218,weatherlink.com 1.10,2013-09-13 17:55:00,
2013-09-13 12:10:00,73.4,51.0,30.01,SW,218,0.0,5.0,45,0.00,,,0.00,687,weatherlink.com 1.10,2013-09-13 18:10:00,
2013-09-13 12:25:00,75.4,50.0,30.00,South,182,1.0,7.0,41,0.00,,,0.00,682,weatherlink.com 1.10,2013-09-13 18:25:00,
2013-09-13 12:40:00,75.9,50.0,30.00,SW,233,7.0,10.0,41,0.00,,,0.00,705,weatherlink.com 1.10,2013-09-13 18:40:00,
2013-09-13 12:56:00,76.6,50.0,29.98,SW,221,7.0,11.0,40,0.00,,,0.00,700,weatherlink.com 1.10,2013-09-13 18:56:00,
2013-09-13 13:11:00,77.7,51.0,29.98,SSW,209,4.0,11.0,39,0.00,,,0.00,710,weatherlink.com 1.10,2013-09-13 19:11:00,
2013-09-13 13:26:00,79.3,50.0,29.97,SSW,202,0.0,7.0,36,0.00,,,0.00,715,weatherlink.com 1.10,2013-09-13 19:26:00,
2013-09-13 13:41:00,80.0,49.0,29.96,North,360,0.0,6.0,34,0.00,,,0.00,715,weatherlink.com 1.10,2013-09-13 19:41:00,
2013-09-13 13:56:00,80.8,50.0,29.95,North,9,8.0,10.0,34,0.00,,,0.00,717,weatherlink.com 1.10,2013-09-13 19:56:00,
2013-09-13 14:11:00,80.6,51.0,29.95,NNW,334,5.0,11.0,35,0.00,,,0.00,728,weatherlink.com 1.10,2013-09-13 20:11:00,
2013-09-13 14:26:00,81.0,49.0,29.94,NW,311,0.0,11.0,33,0.00,,,0.00,715,weatherlink.com 1.10,2013-09-13 20:26:00,
2013-09-13 14:41:00,82.4,49.0,29.94,NNW,345,12.0,18.0,31,0.00,,,0.00,700,weatherlink.com 1.10,2013-09-13 20:41:00,
2013-09-13 14:56:00,82.9,47.0,29.93,NNE,19,14.0,24.0,28,0.00,,,0.00,680,weatherlink.com 1.10,2013-09-13 20:56:00,
2013-09-13 15:11:00,83.2,46.0,29.93,North,355,16.0,24.0,27,0.00,,,0.00,652,weatherlink.com 1.10,2013-09-13 21:11:00,
2013-09-13 15:26:00,83.5,45.0,29.92,North,355,15.0,23.0,26,0.00,,,0.00,633,weatherlink.com 1.10,2013-09-13 21:26:00,
2013-09-13 15:41:00,84.0,46.0,29.92,North,360,11.0,21.0,26,0.00,,,0.00,612,weatherlink.com 1.10,2013-09-13 21:41:00,
2013-09-13 15:56:00,83.8,44.0,29.92,NW,326,9.0,25.0,25,0.00,,,0.00,585,weatherlink.com 1.10,2013-09-13 21:56:00,
2013-09-13 16:11:00,-999.0,-99.9,29.91,North,-999,-999.0,-999.0,-999,0.00,,,0.00,,weatherlink.com 1.10,2013-09-13 22:11:00,
2013-09-13 16:26:00,-999.0,-99.9,29.90,North,-999,-999.0,-999.0,-999,0.00,,,0.00,,weatherlink.com 1.10,2013-09-13 22:26:00,
2013-09-13 16:41:00,-999.0,-99.9,29.90,North,-999,-999.0,-999.0,-999,0.00,,,0.00,,weatherlink.com 1.10,2013-09-13 22:41:00,
2013-09-13 16:56:00,-999.0,-99.9,29.90,North,-999,-999.0,-999.0,-999,0.00,,,0.00,,weatherlink.com 1.10,2013-09-13 22:56:00,
2013-09-13 17:11:00,-999.0,-99.9,29.90,North,-999,-999.0,-999.0,-999,0.00,,,0.00,,weatherlink.com 1.10,2013-09-13 23:11:00,
2013-09-13 17:27:00,-999.0,-99.9,29.90,North,-999,-999.0,-999.0,-999,0.00,,,0.00,,weatherlink.com 1.10,2013-09-13 23:27:00,
2013-09-13 17:42:00,-999.0,-99.9,29.90,North,-999,-999.0,-999.0,-999,0.00,,,0.00,,weatherlink.com 1.10,2013-09-13 23:42:00,
2013-09-13 17:57:00,84.0,41.0,29.90,NNE,15,20.0,32.0,22,0.00,,,0.00,283,weatherlink.com 1.10,2013-09-13 23:57:00,
2013-09-13 18:12:00,83.7,41.0,29.90,North,9,28.0,32.0,22,0.00,,,0.00,232,weatherlink.com 1.10,2013-09-14 00:12:00,
2013-09-13 18:27:00,83.1,43.0,29.90,NNE,15,31.0,33.0,24,0.00,,,0.00,163,weatherlink.com 1.10,2013-09-14 00:27:00,
2013-09-13 18:42:00,82.4,42.0,29.90,North,5,23.0,30.0,24,0.00,,,0.00,111,weatherlink.com 1.10,2013-09-14 00:42:00,
2013-09-13 18:57:00,81.2,44.0,29.90,North,355,22.0,27.0,27,0.00,,,0.00,67,weatherlink.com 1.10,2013-09-14 00:57:00,
2013-09-13 19:12:00,80.6,45.0,29.91,NNW,346,20.0,25.0,28,0.00,,,0.00,32,weatherlink.com 1.10,2013-09-14 01:12:00,
2013-09-13 19:27:00,80.0,45.0,29.91,North,5,15.0,17.0,29,0.00,,,0.00,21,weatherlink.com 1.10,2013-09-14 01:27:00,
2013-09-13 19:42:00,79.3,45.0,29.91,North,5,11.0,16.0,30,0.00,,,0.00,5,weatherlink.com 1.10,2013-09-14 01:42:00,
2013-09-13 19:57:00,78.9,46.0,29.91,North,11,14.0,16.0,31,0.00,,,0.00,0,weatherlink.com 1.10,2013-09-14 01:57:00,
2013-09-13 20:12:00,78.3,45.0,29.91,NNE,28,14.0,16.0,31,0.00,,,0.00,0,weatherlink.com 1.10,2013-09-14 02:12:00,
2013-09-13 20:27:00,78.2,45.0,29.92,NNE,30,17.0,18.0,31,0.00,,,0.00,0,weatherlink.com 1.10,2013-09-14 02:27:00,
2013-09-13 20:42:00,78.0,45.0,29.92,NE,38,16.0,19.0,31,0.00,,,0.00,0,weatherlink.com 1.10,2013-09-14 02:42:00,
2013-09-13 20:57:00,77.9,46.0,29.93,NNE,30,13.0,18.0,32,0.00,,,0.00,0,weatherlink.com 1.10,2013-09-14 02:57:00,
2013-09-13 21:12:00,77.9,46.0,29.94,NNE,33,14.0,17.0,32,0.00,,,0.00,0,weatherlink.com 1.10,2013-09-14 03:12:00,
2013-09-13 21:27:00,77.6,46.0,29.95,ENE,60,11.0,16.0,33,0.00,,,0.00,0,weatherlink.com 1.10,2013-09-14 03:27:00,
2013-09-13 21:42:00,78.2,46.0,29.96,East,96,8.0,13.0,32,0.00,,,0.00,0,weatherlink.com 1.10,2013-09-14 03:42:00,
2013-09-13 21:57:00,77.9,46.0,29.98,SSE,166,9.0,10.0,32,0.00,,,0.00,0,weatherlink.com 1.10,2013-09-14 03:57:00,
2013-09-13 22:12:00,72.5,49.0,29.99,South,180,11.0,26.0,44,0.00,,,0.00,0,weatherlink.com 1.10,2013-09-14 04:12:00,
2013-09-13 22:27:00,72.1,50.0,29.99,SSE,160,17.0,19.0,46,0.00,,,0.00,0,weatherlink.com 1.10,2013-09-14 04:27:00,
2013-09-13 22:42:00,71.7,50.0,29.99,SE,136,15.0,19.0,47,0.00,,,0.00,0,weatherlink.com 1.10,2013-09-14 04:42:00,
2013-09-13 22:57:00,72.1,50.0,29.99,SE,136,22.0,23.0,45,0.00,,,0.00,0,weatherlink.com 1.10,2013-09-14 04:57:00,
2013-09-13 23:12:00,72.0,49.0,29.99,SE,133,18.0,25.0,44,0.00,,,0.00,0,weatherlink.com 1.10,2013-09-14 05:12:00,
2013-09-13 23:27:00,71.8,49.0,30.00,SSE,157,17.0,26.0,44,0.00,,,0.00,0,weatherlink.com 1.10,2013-09-14 05:27:00,
2013-09-13 23:42:00,71.5,49.0,30.01,SE,146,16.0,22.0,45,0.00,,,0.00,0,weatherlink.com 1.10,2013-09-14 05:42:00,
2013-09-13 23:57:00,70.9,49.0,30.01,SSE,164,11.0,20.0,46,0.00,,,0.00,0,weatherlink.com 1.10,2013-09-14 05:57:00,